sensor_id;sensor_type;location;lat;lon;timestamp;pressure;altitude;pressure_sealevel;temperature;humidity
54918;BME280;40818;50.562;7.454;2022-10-31T00:02:52;98205.81;;;12.23;100.00
54918;BME280;40818;50.562;7.454;2022-10-31T00:07:56;98199.31;;;12.16;100.00
54918;BME280;40818;50.562;7.454;2022-10-31T00:12:59;98193.50;;;12.12;100.00
54918;BME280;40818;50.562;7.454;2022-10-31T00:18:06;98194.53;;;12.10;100.00
54918;BME280;40818;50.562;7.454;2022-10-31T00:23:11;98198.16;;;12.07;100.00
54918;BME280;40818;50.562;7.454;2022-10-31T00:28:14;98201.69;;;12.06;100.00
54918;BME280;40818;50.562;7.454;2022-10-31T00:33:20;98212.28;;;12.03;100.00
54918;BME280;40818;50.562;7.454;2022-10-31T00:38:24;98220.19;;;12.02;100.00
54918;BME280;40818;50.562;7.454;2022-10-31T00:43:27;98229.88;;;12.00;100.00
54918;BME280;40818;50.562;7.454;2022-10-31T00:48:33;98214.44;;;11.97;100.00
54918;BME280;40818;50.562;7.454;2022-10-31T00:53:36;98210.34;;;11.92;100.00
54918;BME280;40818;50.562;7.454;2022-10-31T00:58:40;98214.91;;;11.89;100.00
54918;BME280;40818;50.562;7.454;2022-10-31T01:03:46;98216.66;;;11.88;100.00
54918;BME280;40818;50.562;7.454;2022-10-31T01:08:49;98219.38;;;11.87;100.00
54918;BME280;40818;50.562;7.454;2022-10-31T01:13:53;98222.06;;;11.85;100.00
54918;BME280;40818;50.562;7.454;2022-10-31T01:18:59;98218.53;;;11.86;100.00
54918;BME280;40818;50.562;7.454;2022-10-31T01:24:05;98216.97;;;11.84;100.00
54918;BME280;40818;50.562;7.454;2022-10-31T01:29:11;98214.31;;;11.71;100.00
54918;BME280;40818;50.562;7.454;2022-10-31T01:34:17;98208.91;;;11.74;100.00
54918;BME280;40818;50.562;7.454;2022-10-31T01:39:21;98196.09;;;11.71;100.00
54918;BME280;40818;50.562;7.454;2022-10-31T01:44:50;98183.81;;;11.73;100.00
54918;BME280;40818;50.562;7.454;2022-10-31T01:50:00;98186.41;;;11.73;100.00
54918;BME280;40818;50.562;7.454;2022-10-31T01:55:07;98184.66;;;11.73;100.00
54918;BME280;40818;50.562;7.454;2022-10-31T02:00:13;98182.16;;;11.72;100.00
54918;BME280;40818;50.562;7.454;2022-10-31T02:05:25;98174.53;;;11.69;100.00
54918;BME280;40818;50.562;7.454;2022-10-31T02:10:30;98172.97;;;11.66;100.00
54918;BME280;40818;50.562;7.454;2022-10-31T02:15:35;98180.13;;;11.63;100.00
54918;BME280;40818;50.562;7.454;2022-10-31T02:20:48;98174.94;;;11.63;100.00
54918;BME280;40818;50.562;7.454;2022-10-31T02:26:07;98176.16;;;11.57;100.00
54918;BME280;40818;50.562;7.454;2022-10-31T02:31:29;98178.09;;;11.53;100.00
54918;BME280;40818;50.562;7.454;2022-10-31T02:36:41;98179.03;;;11.52;100.00
54918;BME280;40818;50.562;7.454;2022-10-31T02:41:52;98180.06;;;11.50;100.00
54918;BME280;40818;50.562;7.454;2022-10-31T02:47:05;98174.03;;;11.49;100.00
54918;BME280;40818;50.562;7.454;2022-10-31T02:52:20;98180.25;;;11.47;100.00
54918;BME280;40818;50.562;7.454;2022-10-31T02:57:25;98180.53;;;11.42;100.00
54918;BME280;40818;50.562;7.454;2022-10-31T03:02:43;98169.31;;;11.41;100.00
54918;BME280;40818;50.562;7.454;2022-10-31T03:07:57;98179.81;;;11.40;100.00
54918;BME280;40818;50.562;7.454;2022-10-31T03:13:09;98168.75;;;11.36;100.00
54918;BME280;40818;50.562;7.454;2022-10-31T03:18:21;98169.97;;;11.31;100.00
54918;BME280;40818;50.562;7.454;2022-10-31T03:23:30;98172.75;;;11.27;100.00
54918;BME280;40818;50.562;7.454;2022-10-31T03:28:37;98175.53;;;11.24;100.00
54918;BME280;40818;50.562;7.454;2022-10-31T03:33:44;98186.78;;;11.25;100.00
54918;BME280;40818;50.562;7.454;2022-10-31T03:38:49;98182.59;;;11.22;100.00
54918;BME280;40818;50.562;7.454;2022-10-31T03:43:57;98184.47;;;11.20;100.00
54918;BME280;40818;50.562;7.454;2022-10-31T03:49:04;98181.09;;;11.18;100.00
54918;BME280;40818;50.562;7.454;2022-10-31T03:54:13;98180.38;;;11.16;100.00
54918;BME280;40818;50.562;7.454;2022-10-31T03:59:22;98185.84;;;11.12;100.00
54918;BME280;40818;50.562;7.454;2022-10-31T04:04:30;98173.03;;;11.08;100.00
54918;BME280;40818;50.562;7.454;2022-10-31T04:09:36;98183.63;;;11.05;100.00
54918;BME280;40818;50.562;7.454;2022-10-31T04:14:41;98188.91;;;11.04;100.00
54918;BME280;40818;50.562;7.454;2022-10-31T04:19:48;98169.34;;;10.98;100.00
54918;BME280;40818;50.562;7.454;2022-10-31T04:24:52;98176.38;;;10.96;100.00
54918;BME280;40818;50.562;7.454;2022-10-31T04:29:56;98168.66;;;10.95;100.00
54918;BME280;40818;50.562;7.454;2022-10-31T04:35:03;98163.66;;;10.91;100.00
54918;BME280;40818;50.562;7.454;2022-10-31T04:40:08;98164.97;;;10.84;100.00
54918;BME280;40818;50.562;7.454;2022-10-31T04:45:34;98153.19;;;10.79;100.00
54918;BME280;40818;50.562;7.454;2022-10-31T04:50:41;98155.84;;;10.77;100.00
54918;BME280;40818;50.562;7.454;2022-10-31T04:55:44;98156.88;;;10.74;100.00
54918;BME280;40818;50.562;7.454;2022-10-31T05:00:53;98169.94;;;10.73;100.00
54918;BME280;40818;50.562;7.454;2022-10-31T05:05:59;98158.06;;;10.69;100.00
54918;BME280;40818;50.562;7.454;2022-10-31T05:11:03;98155.47;;;10.69;100.00
54918;BME280;40818;50.562;7.454;2022-10-31T05:16:07;98151.13;;;10.69;100.00
54918;BME280;40818;50.562;7.454;2022-10-31T05:21:32;98145.00;;;10.70;100.00
54918;BME280;40818;50.562;7.454;2022-10-31T05:26:37;98144.72;;;10.61;100.00
54918;BME280;40818;50.562;7.454;2022-10-31T05:31:40;98130.88;;;10.60;100.00
54918;BME280;40818;50.562;7.454;2022-10-31T05:36:58;98139.53;;;10.61;100.00
54918;BME280;40818;50.562;7.454;2022-10-31T05:42:01;98135.97;;;10.62;100.00
54918;BME280;40818;50.562;7.454;2022-10-31T05:47:05;98134.25;;;10.62;100.00
54918;BME280;40818;50.562;7.454;2022-10-31T05:52:29;98126.69;;;10.57;100.00
54918;BME280;40818;50.562;7.454;2022-10-31T05:57:40;98116.41;;;10.56;100.00
54918;BME280;40818;50.562;7.454;2022-10-31T06:02:43;98121.59;;;10.56;100.00
54918;BME280;40818;50.562;7.454;2022-10-31T06:08:00;98121.41;;;10.59;100.00
54918;BME280;40818;50.562;7.454;2022-10-31T06:13:04;98114.47;;;10.59;100.00
54918;BME280;40818;50.562;7.454;2022-10-31T06:18:16;98108.38;;;10.61;100.00
54918;BME280;40818;50.562;7.454;2022-10-31T06:23:25;98115.22;;;10.62;100.00
54918;BME280;40818;50.562;7.454;2022-10-31T06:28:48;98120.41;;;10.62;100.00
54918;BME280;40818;50.562;7.454;2022-10-31T06:34:06;98131.34;;;10.67;100.00
54918;BME280;40818;50.562;7.454;2022-10-31T06:39:12;98128.56;;;10.70;100.00
54918;BME280;40818;50.562;7.454;2022-10-31T06:44:16;98127.75;;;10.55;100.00
54918;BME280;40818;50.562;7.454;2022-10-31T06:49:28;98131.16;;;10.25;100.00
54918;BME280;40818;50.562;7.454;2022-10-31T06:54:38;98132.06;;;10.40;100.00
54918;BME280;40818;50.562;7.454;2022-10-31T06:59:42;98130.28;;;10.40;100.00
54918;BME280;40818;50.562;7.454;2022-10-31T07:04:52;98127.69;;;10.40;100.00
54918;BME280;40818;50.562;7.454;2022-10-31T07:09:59;98125.88;;;10.43;100.00
54918;BME280;40818;50.562;7.454;2022-10-31T07:15:21;98119.00;;;10.41;100.00
54918;BME280;40818;50.562;7.454;2022-10-31T07:20:26;98126.16;;;10.52;100.00
54918;BME280;40818;50.562;7.454;2022-10-31T07:25:33;98128.13;;;10.78;100.00
54918;BME280;40818;50.562;7.454;2022-10-31T07:30:49;98136.00;;;11.19;100.00
54918;BME280;40818;50.562;7.454;2022-10-31T07:35:54;98147.28;;;11.47;100.00
54918;BME280;40818;50.562;7.454;2022-10-31T07:41:06;98138.31;;;11.66;100.00
54918;BME280;40818;50.562;7.454;2022-10-31T07:46:14;98117.16;;;11.72;100.00
54918;BME280;40818;50.562;7.454;2022-10-31T07:51:37;98134.59;;;11.70;100.00
54918;BME280;40818;50.562;7.454;2022-10-31T07:57:00;98131.28;;;11.68;100.00
54918;BME280;40818;50.562;7.454;2022-10-31T08:02:04;98136.81;;;11.76;100.00
54918;BME280;40818;50.562;7.454;2022-10-31T08:07:22;98142.19;;;11.87;100.00
54918;BME280;40818;50.562;7.454;2022-10-31T08:12:35;98130.53;;;11.93;100.00
54918;BME280;40818;50.562;7.454;2022-10-31T08:17:41;98120.78;;;11.97;100.00
54918;BME280;40818;50.562;7.454;2022-10-31T08:22:53;98120.88;;;11.95;100.00
54918;BME280;40818;50.562;7.454;2022-10-31T08:27:59;98120.72;;;12.11;100.00
54918;BME280;40818;50.562;7.454;2022-10-31T08:33:04;98127.19;;;12.18;100.00
54918;BME280;40818;50.562;7.454;2022-10-31T08:38:43;98111.28;;;12.36;100.00
54918;BME280;40818;50.562;7.454;2022-10-31T08:43:50;98106.50;;;12.42;100.00
54918;BME280;40818;50.562;7.454;2022-10-31T08:48:53;98108.19;;;12.56;100.00
54918;BME280;40818;50.562;7.454;2022-10-31T08:53:57;98125.38;;;12.72;100.00
54918;BME280;40818;50.562;7.454;2022-10-31T08:59:12;98106.94;;;12.88;100.00
54918;BME280;40818;50.562;7.454;2022-10-31T09:04:39;98110.25;;;13.03;100.00
54918;BME280;40818;50.562;7.454;2022-10-31T09:09:42;98108.56;;;13.14;100.00
54918;BME280;40818;50.562;7.454;2022-10-31T09:14:49;98097.09;;;13.17;100.00
54918;BME280;40818;50.562;7.454;2022-10-31T09:19:58;98102.91;;;13.21;100.00
54918;BME280;40818;50.562;7.454;2022-10-31T09:25:07;98102.47;;;13.27;100.00
54918;BME280;40818;50.562;7.454;2022-10-31T09:30:15;98098.09;;;13.27;100.00
54918;BME280;40818;50.562;7.454;2022-10-31T09:35:18;98099.13;;;13.25;100.00
54918;BME280;40818;50.562;7.454;2022-10-31T09:40:26;98088.09;;;13.21;100.00
54918;BME280;40818;50.562;7.454;2022-10-31T09:45:37;98089.97;;;13.19;100.00
54918;BME280;40818;50.562;7.454;2022-10-31T09:51:00;98080.69;;;13.15;100.00
54918;BME280;40818;50.562;7.454;2022-10-31T09:56:23;98080.00;;;13.13;100.00
54918;BME280;40818;50.562;7.454;2022-10-31T10:01:40;98076.44;;;13.14;100.00
54918;BME280;40818;50.562;7.454;2022-10-31T10:06:48;98081.44;;;13.17;100.00
54918;BME280;40818;50.562;7.454;2022-10-31T10:12:40;98071.63;;;13.21;100.00
54918;BME280;40818;50.562;7.454;2022-10-31T10:17:54;98065.88;;;13.28;100.00
54918;BME280;40818;50.562;7.454;2022-10-31T10:23:15;98067.78;;;13.26;100.00
54918;BME280;40818;50.562;7.454;2022-10-31T10:28:27;98064.53;;;13.23;100.00
54918;BME280;40818;50.562;7.454;2022-10-31T10:33:39;98064.72;;;13.32;100.00
54918;BME280;40818;50.562;7.454;2022-10-31T10:38:50;98060.75;;;13.40;100.00
54918;BME280;40818;50.562;7.454;2022-10-31T10:43:55;98049.16;;;13.44;100.00
54918;BME280;40818;50.562;7.454;2022-10-31T10:49:08;98046.94;;;13.51;100.00
54918;BME280;40818;50.562;7.454;2022-10-31T10:54:36;98030.00;;;13.56;100.00
54918;BME280;40818;50.562;7.454;2022-10-31T10:59:41;98030.91;;;13.68;100.00
54918;BME280;40818;50.562;7.454;2022-10-31T11:04:50;98038.66;;;13.81;100.00
54918;BME280;40818;50.562;7.454;2022-10-31T11:10:03;98016.16;;;14.03;100.00
54918;BME280;40818;50.562;7.454;2022-10-31T11:15:21;98019.88;;;14.11;100.00
54918;BME280;40818;50.562;7.454;2022-10-31T11:20:32;98002.31;;;14.25;100.00
54918;BME280;40818;50.562;7.454;2022-10-31T11:25:36;98013.00;;;14.33;100.00
54918;BME280;40818;50.562;7.454;2022-10-31T11:30:43;98012.69;;;14.49;100.00
54918;BME280;40818;50.562;7.454;2022-10-31T11:35:51;97998.69;;;14.61;100.00
54918;BME280;40818;50.562;7.454;2022-10-31T11:40:58;97988.59;;;14.68;100.00
54918;BME280;40818;50.562;7.454;2022-10-31T11:46:09;97984.66;;;14.74;100.00
54918;BME280;40818;50.562;7.454;2022-10-31T11:51:20;97958.78;;;14.71;100.00
54918;BME280;40818;50.562;7.454;2022-10-31T11:56:24;97966.59;;;14.82;100.00
54918;BME280;40818;50.562;7.454;2022-10-31T12:01:29;97956.84;;;14.95;100.00
54918;BME280;40818;50.562;7.454;2022-10-31T12:06:37;97946.81;;;15.12;100.00
54918;BME280;40818;50.562;7.454;2022-10-31T12:11:47;97946.81;;;15.12;100.00
54918;BME280;40818;50.562;7.454;2022-10-31T12:16:59;97939.88;;;15.22;100.00
54918;BME280;40818;50.562;7.454;2022-10-31T12:22:15;97930.22;;;15.34;100.00
54918;BME280;40818;50.562;7.454;2022-10-31T12:27:31;97928.41;;;15.34;100.00
54918;BME280;40818;50.562;7.454;2022-10-31T12:32:42;97931.84;;;15.35;100.00
54918;BME280;40818;50.562;7.454;2022-10-31T12:38:07;97918.22;;;15.52;100.00
54918;BME280;40818;50.562;7.454;2022-10-31T12:43:23;97914.00;;;15.61;100.00
54918;BME280;40818;50.562;7.454;2022-10-31T12:48:51;97901.56;;;15.75;100.00
54918;BME280;40818;50.562;7.454;2022-10-31T12:54:15;97891.69;;;15.78;100.00
54918;BME280;40818;50.562;7.454;2022-10-31T12:59:23;97867.53;;;15.75;100.00
54918;BME280;40818;50.562;7.454;2022-10-31T13:04:38;97856.44;;;15.61;100.00
54918;BME280;40818;50.562;7.454;2022-10-31T13:09:50;97844.84;;;15.54;100.00
54918;BME280;40818;50.562;7.454;2022-10-31T13:14:58;97862.00;;;15.47;100.00
54918;BME280;40818;50.562;7.454;2022-10-31T13:20:15;97841.34;;;15.44;100.00
54918;BME280;40818;50.562;7.454;2022-10-31T13:25:24;97834.25;;;15.34;100.00
54918;BME280;40818;50.562;7.454;2022-10-31T13:30:31;97827.75;;;15.29;100.00
54918;BME280;40818;50.562;7.454;2022-10-31T13:35:42;97811.88;;;15.21;100.00
54918;BME280;40818;50.562;7.454;2022-10-31T13:40:54;97805.38;;;15.15;100.00
54918;BME280;40818;50.562;7.454;2022-10-31T13:46:01;97807.28;;;15.13;100.00
54918;BME280;40818;50.562;7.454;2022-10-31T13:51:06;97812.25;;;15.16;100.00
54918;BME280;40818;50.562;7.454;2022-10-31T13:56:31;97803.22;;;15.20;100.00
54918;BME280;40818;50.562;7.454;2022-10-31T14:01:36;97802.00;;;15.24;100.00
54918;BME280;40818;50.562;7.454;2022-10-31T14:06:54;97797.72;;;15.23;100.00
54918;BME280;40818;50.562;7.454;2022-10-31T14:12:06;97796.56;;;15.16;100.00
54918;BME280;40818;50.562;7.454;2022-10-31T14:17:18;97772.84;;;15.08;100.00
54918;BME280;40818;50.562;7.454;2022-10-31T14:22:28;97765.13;;;15.06;100.00
54918;BME280;40818;50.562;7.454;2022-10-31T14:27:46;97762.53;;;15.06;100.00
54918;BME280;40818;50.562;7.454;2022-10-31T14:32:54;97752.06;;;15.06;100.00
54918;BME280;40818;50.562;7.454;2022-10-31T14:38:07;97746.84;;;15.06;100.00
54918;BME280;40818;50.562;7.454;2022-10-31T14:43:35;97753.47;;;15.10;100.00
54918;BME280;40818;50.562;7.454;2022-10-31T14:49:03;97756.50;;;15.15;100.00
54918;BME280;40818;50.562;7.454;2022-10-31T14:54:13;97744.59;;;15.23;100.00
54918;BME280;40818;50.562;7.454;2022-10-31T14:59:23;97734.78;;;15.15;100.00
54918;BME280;40818;50.562;7.454;2022-10-31T15:04:29;97740.59;;;15.18;100.00
54918;BME280;40818;50.562;7.454;2022-10-31T15:09:35;97711.78;;;15.09;100.00
54918;BME280;40818;50.562;7.454;2022-10-31T15:14:43;97712.00;;;15.06;100.00
54918;BME280;40818;50.562;7.454;2022-10-31T15:19:49;97701.91;;;14.91;100.00
54918;BME280;40818;50.562;7.454;2022-10-31T15:24:54;97694.56;;;14.85;100.00
54918;BME280;40818;50.562;7.454;2022-10-31T15:30:01;97696.34;;;14.84;100.00
54918;BME280;40818;50.562;7.454;2022-10-31T15:35:09;97679.78;;;14.74;100.00
54918;BME280;40818;50.562;7.454;2022-10-31T15:40:15;97667.13;;;14.58;100.00
54918;BME280;40818;50.562;7.454;2022-10-31T15:45:25;97669.16;;;14.33;100.00
54918;BME280;40818;50.562;7.454;2022-10-31T15:50:31;97684.44;;;14.38;100.00
54918;BME280;40818;50.562;7.454;2022-10-31T15:55:38;97681.31;;;14.23;100.00
54918;BME280;40818;50.562;7.454;2022-10-31T16:01:00;97661.50;;;14.21;100.00
54918;BME280;40818;50.562;7.454;2022-10-31T16:06:05;97636.28;;;13.98;100.00
54918;BME280;40818;50.562;7.454;2022-10-31T16:11:20;97636.00;;;13.80;100.00
54918;BME280;40818;50.562;7.454;2022-10-31T16:16:27;97646.94;;;13.74;100.00
54918;BME280;40818;50.562;7.454;2022-10-31T16:21:35;97640.06;;;13.73;100.00
54918;BME280;40818;50.562;7.454;2022-10-31T16:26:39;97638.38;;;13.72;100.00
54918;BME280;40818;50.562;7.454;2022-10-31T16:31:46;97661.28;;;13.80;100.00
54918;BME280;40818;50.562;7.454;2022-10-31T16:36:50;97662.44;;;13.87;100.00
54918;BME280;40818;50.562;7.454;2022-10-31T16:41:55;97646.31;;;13.93;100.00
54918;BME280;40818;50.562;7.454;2022-10-31T16:47:13;97667.94;;;13.73;100.00
54918;BME280;40818;50.562;7.454;2022-10-31T16:52:17;97671.66;;;13.47;100.00
54918;BME280;40818;50.562;7.454;2022-10-31T16:57:29;97654.69;;;13.30;100.00
54918;BME280;40818;50.562;7.454;2022-10-31T17:02:37;97651.81;;;13.11;100.00
54918;BME280;40818;50.562;7.454;2022-10-31T17:07:41;97657.03;;;12.88;100.00
54918;BME280;40818;50.562;7.454;2022-10-31T17:12:46;97652.38;;;12.69;100.00
54918;BME280;40818;50.562;7.454;2022-10-31T17:17:54;97637.78;;;12.55;100.00
54918;BME280;40818;50.562;7.454;2022-10-31T17:22:58;97642.53;;;12.50;100.00
54918;BME280;40818;50.562;7.454;2022-10-31T17:28:02;97646.94;;;12.61;100.00
54918;BME280;40818;50.562;7.454;2022-10-31T17:33:09;97645.41;;;12.70;100.00
54918;BME280;40818;50.562;7.454;2022-10-31T17:38:13;97650.03;;;12.77;100.00
54918;BME280;40818;50.562;7.454;2022-10-31T17:43:17;97648.50;;;12.75;100.00
54918;BME280;40818;50.562;7.454;2022-10-31T17:48:23;97642.66;;;12.60;100.00
54918;BME280;40818;50.562;7.454;2022-10-31T17:53:28;97654.38;;;12.54;100.00
54918;BME280;40818;50.562;7.454;2022-10-31T17:58:33;97647.13;;;12.46;100.00
54918;BME280;40818;50.562;7.454;2022-10-31T18:03:39;97642.84;;;12.45;100.00
54918;BME280;40818;50.562;7.454;2022-10-31T18:08:44;97640.59;;;12.41;100.00
54918;BME280;40818;50.562;7.454;2022-10-31T18:13:53;97638.66;;;12.32;100.00
54918;BME280;40818;50.562;7.454;2022-10-31T18:19:00;97621.53;;;12.29;100.00
54918;BME280;40818;50.562;7.454;2022-10-31T18:24:06;97621.69;;;12.39;100.00
54918;BME280;40818;50.562;7.454;2022-10-31T18:29:10;97621.06;;;12.35;100.00
54918;BME280;40818;50.562;7.454;2022-10-31T18:34:16;97613.13;;;12.37;100.00
54918;BME280;40818;50.562;7.454;2022-10-31T18:39:20;97614.81;;;12.38;100.00
54918;BME280;40818;50.562;7.454;2022-10-31T18:44:23;97598.13;;;12.40;100.00
54918;BME280;40818;50.562;7.454;2022-10-31T18:49:29;97605.94;;;12.40;100.00
54918;BME280;40818;50.562;7.454;2022-10-31T18:54:33;97599.19;;;12.38;100.00
54918;BME280;40818;50.562;7.454;2022-10-31T18:59:36;97603.66;;;12.36;100.00
54918;BME280;40818;50.562;7.454;2022-10-31T19:04:42;97593.59;;;12.31;100.00
54918;BME280;40818;50.562;7.454;2022-10-31T19:09:46;97590.44;;;12.39;100.00
54918;BME280;40818;50.562;7.454;2022-10-31T19:14:49;97589.03;;;12.57;100.00
54918;BME280;40818;50.562;7.454;2022-10-31T19:19:55;97583.34;;;12.52;100.00
54918;BME280;40818;50.562;7.454;2022-10-31T19:24:59;97582.16;;;12.56;100.00
54918;BME280;40818;50.562;7.454;2022-10-31T19:30:03;97579.09;;;12.51;100.00
54918;BME280;40818;50.562;7.454;2022-10-31T19:35:10;97576.69;;;12.37;100.00
54918;BME280;40818;50.562;7.454;2022-10-31T19:40:14;97581.75;;;12.27;100.00
54918;BME280;40818;50.562;7.454;2022-10-31T19:45:17;97580.69;;;12.29;100.00
54918;BME280;40818;50.562;7.454;2022-10-31T19:50:23;97583.69;;;12.36;100.00
54918;BME280;40818;50.562;7.454;2022-10-31T19:55:28;97578.59;;;12.46;100.00
54918;BME280;40818;50.562;7.454;2022-10-31T20:00:31;97575.41;;;12.54;100.00
54918;BME280;40818;50.562;7.454;2022-10-31T20:05:41;97571.50;;;12.59;100.00
54918;BME280;40818;50.562;7.454;2022-10-31T20:10:55;97558.84;;;12.55;100.00
54918;BME280;40818;50.562;7.454;2022-10-31T20:16:01;97567.59;;;12.54;100.00
54918;BME280;40818;50.562;7.454;2022-10-31T20:21:10;97560.97;;;12.50;100.00
54918;BME280;40818;50.562;7.454;2022-10-31T20:26:16;97553.53;;;12.56;100.00
54918;BME280;40818;50.562;7.454;2022-10-31T20:31:23;97540.75;;;12.53;100.00
54918;BME280;40818;50.562;7.454;2022-10-31T20:36:30;97537.66;;;12.48;100.00
54918;BME280;40818;50.562;7.454;2022-10-31T20:41:35;97526.28;;;12.38;100.00
54918;BME280;40818;50.562;7.454;2022-10-31T20:46:39;97527.97;;;12.39;100.00
54918;BME280;40818;50.562;7.454;2022-10-31T20:51:45;97523.56;;;12.39;100.00
54918;BME280;40818;50.562;7.454;2022-10-31T20:56:49;97514.47;;;12.34;100.00
54918;BME280;40818;50.562;7.454;2022-10-31T21:01:52;97513.28;;;12.38;100.00
54918;BME280;40818;50.562;7.454;2022-10-31T21:06:58;97512.34;;;12.39;100.00
54918;BME280;40818;50.562;7.454;2022-10-31T21:12:01;97512.91;;;12.31;100.00
54918;BME280;40818;50.562;7.454;2022-10-31T21:17:07;97514.47;;;12.34;100.00
54918;BME280;40818;50.562;7.454;2022-10-31T21:22:14;97502.13;;;12.36;100.00
54918;BME280;40818;50.562;7.454;2022-10-31T21:27:17;97515.66;;;12.41;100.00
54918;BME280;40818;50.562;7.454;2022-10-31T21:32:20;97511.84;;;12.45;100.00
54918;BME280;40818;50.562;7.454;2022-10-31T21:37:26;97505.84;;;12.56;100.00
54918;BME280;40818;50.562;7.454;2022-10-31T21:42:30;97498.25;;;12.64;100.00
54918;BME280;40818;50.562;7.454;2022-10-31T21:47:33;97504.75;;;12.70;100.00
54918;BME280;40818;50.562;7.454;2022-10-31T21:52:39;97497.44;;;12.75;100.00
54918;BME280;40818;50.562;7.454;2022-10-31T21:57:43;97489.25;;;12.79;100.00
54918;BME280;40818;50.562;7.454;2022-10-31T22:02:46;97498.84;;;12.79;100.00
54918;BME280;40818;50.562;7.454;2022-10-31T22:07:52;97487.47;;;12.80;100.00
54918;BME280;40818;50.562;7.454;2022-10-31T22:12:56;97476.56;;;12.86;100.00
54918;BME280;40818;50.562;7.454;2022-10-31T22:17:59;97479.75;;;12.90;100.00
54918;BME280;40818;50.562;7.454;2022-10-31T22:23:05;97467.78;;;12.98;100.00
54918;BME280;40818;50.562;7.454;2022-10-31T22:28:09;97466.47;;;13.04;100.00
54918;BME280;40818;50.562;7.454;2022-10-31T22:33:12;97462.03;;;13.16;100.00
54918;BME280;40818;50.562;7.454;2022-10-31T22:38:18;97457.91;;;13.13;100.00
54918;BME280;40818;50.562;7.454;2022-10-31T22:43:21;97447.81;;;13.20;100.00
54918;BME280;40818;50.562;7.454;2022-10-31T22:48:25;97439.25;;;13.29;100.00
54918;BME280;40818;50.562;7.454;2022-10-31T22:53:32;97444.22;;;13.32;100.00
54918;BME280;40818;50.562;7.454;2022-10-31T22:58:36;97449.22;;;13.36;100.00
54918;BME280;40818;50.562;7.454;2022-10-31T23:03:40;97451.56;;;13.39;100.00
54918;BME280;40818;50.562;7.454;2022-10-31T23:08:46;97456.41;;;13.43;100.00
54918;BME280;40818;50.562;7.454;2022-10-31T23:13:52;97463.84;;;13.48;100.00
54918;BME280;40818;50.562;7.454;2022-10-31T23:19:15;97460.31;;;13.49;100.00
54918;BME280;40818;50.562;7.454;2022-10-31T23:24:22;97463.47;;;13.53;100.00
54918;BME280;40818;50.562;7.454;2022-10-31T23:29:26;97467.59;;;13.55;100.00
54918;BME280;40818;50.562;7.454;2022-10-31T23:34:30;97470.88;;;13.47;100.00
54918;BME280;40818;50.562;7.454;2022-10-31T23:39:36;97473.81;;;13.54;100.00
54918;BME280;40818;50.562;7.454;2022-10-31T23:44:39;97462.44;;;13.44;100.00
54918;BME280;40818;50.562;7.454;2022-10-31T23:49:43;97464.09;;;13.45;100.00
54918;BME280;40818;50.562;7.454;2022-10-31T23:54:49;97458.69;;;13.37;100.00
54918;BME280;40818;50.562;7.454;2022-10-31T23:59:52;97443.53;;;13.30;100.00
